Time;durP1;ratioP1;P1;durP2;ratioP2;P2;SDS_P1;SDS_P2;PMS_P1;PMS_P2;Temp;Humidity;BMP_temperature;BMP_pressure;BME280_temperature;BME280_humidity;BME280_pressure;Samples;Min_cycle;Max_cycle;Signal;HPM_P1;HPM_P2
2023/03/22 00:00:48;;;;;;;11.85;4.13;;;9.30;99.90;;;;;;5055073;28;20122;-46
2023/03/22 00:03:14;;;;;;;12.75;3.22;;;9.30;99.90;;;;;;5056230;28;20044;-48
2023/03/22 00:05:39;;;;;;;17.42;3.50;;;9.20;99.90;;;;;;5055407;28;20041;-49
2023/03/22 00:08:06;;;;;;;17.27;5.10;;;9.20;99.90;;;;;;5055335;28;20387;-45
2023/03/22 00:10:33;;;;;;;8.40;3.22;;;9.10;99.90;;;;;;5054677;28;20637;-39
2023/03/22 00:12:59;;;;;;;13.65;4.82;;;9.10;99.90;;;;;;5055092;28;20066;-49
2023/03/22 00:15:28;;;;;;;11.02;3.67;;;9.10;99.90;;;;;;5055292;28;20209;-46
2023/03/22 00:17:54;;;;;;;13.60;4.45;;;9.10;99.90;;;;;;5054923;28;20500;-46
2023/03/22 00:20:22;;;;;;;10.07;3.13;;;9.10;99.90;;;;;;5072093;28;20143;-42
2023/03/22 00:22:48;;;;;;;15.50;3.80;;;9.10;99.90;;;;;;5074622;28;20060;-46
2023/03/22 00:25:15;;;;;;;14.25;3.88;;;9.10;99.90;;;;;;5075661;28;20458;-43
2023/03/22 00:27:41;;;;;;;16.77;3.47;;;9.10;99.90;;;;;;5073638;28;20135;-43
2023/03/22 00:30:08;;;;;;;12.32;3.15;;;9.10;99.90;;;;;;5067496;28;20044;-43
2023/03/22 00:32:35;;;;;;;11.13;3.55;;;9.10;99.90;;;;;;5051215;28;20102;-46
2023/03/22 00:35:01;;;;;;;12.10;3.22;;;9.10;99.90;;;;;;5043847;28;20453;-45
2023/03/22 00:37:32;;;;;;;13.23;3.08;;;9.10;99.90;;;;;;5043248;28;20041;-41
2023/03/22 00:39:59;;;;;;;10.98;3.25;;;9.10;99.90;;;;;;5054759;28;20060;-50
2023/03/22 00:42:25;;;;;;;13.30;3.17;;;9.10;99.90;;;;;;5069838;28;20066;-43
2023/03/22 00:44:50;;;;;;;13.52;3.15;;;9.10;99.90;;;;;;5075819;28;20044;-47
2023/03/22 00:47:16;;;;;;;12.07;2.47;;;9.10;99.90;;;;;;5073484;28;20531;-44
2023/03/22 00:49:41;;;;;;;10.75;3.08;;;9.20;99.90;;;;;;5064037;28;20177;-52
2023/03/22 00:52:07;;;;;;;14.13;3.03;;;9.20;99.90;;;;;;5047688;28;20048;-44
2023/03/22 00:54:33;;;;;;;11.07;2.70;;;9.20;99.90;;;;;;5076454;28;20669;-40
2023/03/22 00:56:58;;;;;;;9.40;2.28;;;9.20;99.90;;;;;;5078929;28;20656;-50
2023/03/22 00:59:24;;;;;;;12.55;3.00;;;9.20;99.90;;;;;;5075805;28;20869;-41
2023/03/22 01:01:50;;;;;;;13.23;2.65;;;9.20;99.90;;;;;;5071176;28;20152;-43
2023/03/22 01:04:16;;;;;;;11.60;2.70;;;9.20;99.90;;;;;;5078828;28;20478;-42
2023/03/22 01:06:43;;;;;;;10.60;2.72;;;9.20;99.90;;;;;;5078971;28;20052;-48
2023/03/22 01:09:13;;;;;;;12.35;2.65;;;9.10;99.90;;;;;;5078692;28;20048;-53
2023/03/22 01:11:41;;;;;;;10.80;2.85;;;9.10;99.90;;;;;;5078279;28;20052;-50
2023/03/22 01:14:08;;;;;;;11.48;2.80;;;9.10;99.90;;;;;;5079489;28;20066;-51
2023/03/22 01:16:35;;;;;;;11.45;2.10;;;9.10;99.90;;;;;;5076864;28;20051;-45
2023/03/22 01:19:02;;;;;;;7.03;2.00;;;9.10;99.90;;;;;;5071787;28;20048;-47
2023/03/22 01:21:28;;;;;;;10.25;2.50;;;9.10;99.90;;;;;;5072005;28;20529;-50
2023/03/22 01:23:53;;;;;;;8.98;2.38;;;9.10;99.90;;;;;;5079763;28;20059;-48
2023/03/22 01:26:19;;;;;;;7.22;2.17;;;9.10;99.90;;;;;;5065527;28;20051;-41
2023/03/22 01:28:45;;;;;;;11.18;2.60;;;9.10;99.90;;;;;;5079120;28;20052;-45
2023/03/22 01:31:10;;;;;;;10.45;2.78;;;9.10;99.90;;;;;;5078023;28;20457;-41
2023/03/22 01:33:36;;;;;;;9.18;2.20;;;9.00;99.90;;;;;;5068250;28;20410;-47
2023/03/22 01:36:02;;;;;;;10.63;2.92;;;9.00;99.90;;;;;;5076537;28;20410;-47
2023/03/22 01:38:28;;;;;;;12.75;2.67;;;9.00;99.90;;;;;;5066450;28;20219;-47
2023/03/22 01:40:54;;;;;;;11.98;2.38;;;9.00;99.90;;;;;;5077900;28;20051;-46
2023/03/22 01:43:20;;;;;;;13.60;2.53;;;8.90;99.90;;;;;;5078773;28;20036;-40
2023/03/22 01:45:50;;;;;;;14.43;2.50;;;9.00;99.90;;;;;;5078735;28;20497;-42
2023/03/22 01:48:45;;;;;;;14.98;2.80;;;9.00;99.90;;;;;;5077282;28;20409;-44
2023/03/22 01:51:18;;;;;;;13.52;3.40;;;9.00;99.90;;;;;;5036663;28;20079;-42
2023/03/22 01:53:49;;;;;;;;;;;9.00;99.90;;;;;;5033771;28;20063;-42
2023/03/22 01:56:18;;;;;;;14.52;2.47;;;9.00;99.90;;;;;;5034999;28;19944;-39
2023/03/22 01:58:44;;;;;;;11.93;3.13;;;9.00;99.90;;;;;;5035896;28;20049;-44
2023/03/22 02:01:10;;;;;;;12.07;3.60;;;9.00;99.90;;;;;;5035316;28;20570;-49
2023/03/22 02:03:47;;;;;;;13.43;2.45;;;9.00;99.90;;;;;;5034697;28;20049;-51
2023/03/22 02:06:12;;;;;;;12.38;2.95;;;9.00;99.90;;;;;;5038257;28;20082;-50
2023/03/22 02:08:39;;;;;;;10.05;2.70;;;9.00;99.90;;;;;;5041202;28;20053;-47
2023/03/22 02:11:06;;;;;;;14.45;3.00;;;9.00;99.90;;;;;;5037703;28;20355;-39
2023/03/22 02:14:08;;;;;;;12.80;3.45;;;9.00;99.90;;;;;;5054718;28;20052;-39
2023/03/22 02:17:11;;;;;;;13.80;3.17;;;9.00;99.90;;;;;;5021011;28;20543;-41
2023/03/22 02:19:58;;;;;;;13.65;2.72;;;9.00;99.90;;;;;;5054640;28;20483;-41
2023/03/22 02:22:42;;;;;;;12.10;3.38;;;9.00;99.90;;;;;;5038309;28;20053;-47
2023/03/22 02:25:41;;;;;;;15.70;3.33;;;9.00;99.90;;;;;;5051131;28;20045;-50
2023/03/22 02:28:19;;;;;;;17.63;4.18;;;9.00;99.90;;;;;;5065153;28;20397;-41
2023/03/22 02:31:12;;;;;;;9.30;2.38;;;9.00;99.90;;;;;;5077183;28;20088;-40
2023/03/22 02:33:41;;;;;;;9.93;3.25;;;8.90;99.90;;;;;;5059287;28;20075;-50
2023/03/22 02:36:07;;;;;;;12.70;2.95;;;8.90;99.90;;;;;;5057875;28;20044;-42
2023/03/22 02:38:59;;;;;;;14.35;2.85;;;8.80;99.90;;;;;;5046698;28;20056;-48
2023/03/22 02:41:46;;;;;;;13.88;3.10;;;8.80;99.90;;;;;;5057170;28;20430;-45
2023/03/22 02:44:21;;;;;;;12.60;2.38;;;8.80;99.90;;;;;;5055522;28;20392;-44
2023/03/22 02:47:05;;;;;;;13.13;3.00;;;8.80;99.90;;;;;;5065864;28;20104;-45
2023/03/22 02:49:41;;;;;;;14.52;3.28;;;8.90;99.90;;;;;;5068169;28;20052;-40
2023/03/22 02:52:27;;;;;;;10.38;2.42;;;8.90;99.90;;;;;;5081569;27;20049;-47
2023/03/22 02:55:17;;;;;;;12.95;3.42;;;8.90;99.90;;;;;;5045412;28;20063;-45
2023/03/22 02:57:51;;;;;;;12.07;2.70;;;8.90;99.90;;;;;;5055346;28;20134;-46
2023/03/22 03:00:18;;;;;;;13.65;3.47;;;8.90;99.90;;;;;;5052578;28;20474;-42
2023/03/22 03:02:51;;;;;;;14.40;3.92;;;8.90;99.90;;;;;;5051977;28;20060;-47
2023/03/22 03:05:18;;;;;;;;;;;8.90;99.90;;;;;;5056240;28;20131;-46
2023/03/22 03:07:48;;;;;;;13.60;3.13;;;8.90;99.90;;;;;;5055260;28;20016;-51
2023/03/22 03:10:16;;;;;;;10.23;2.60;;;8.90;99.90;;;;;;5056230;28;20426;-49
2023/03/22 03:12:42;;;;;;;13.50;3.00;;;8.90;99.90;;;;;;5057028;28;20044;-51
2023/03/22 03:15:17;;;;;;;8.32;2.72;;;8.90;99.90;;;;;;5056271;28;20449;-49
2023/03/22 03:17:51;;;;;;;10.27;2.80;;;8.90;99.90;;;;;;5054311;28;20040;-47
2023/03/22 03:20:29;;;;;;;12.52;3.03;;;8.90;99.90;;;;;;5055333;28;20153;-45
2023/03/22 03:23:13;;;;;;;18.55;4.38;;;8.90;99.90;;;;;;5056531;28;20515;-47
2023/03/22 03:25:53;;;;;;;12.85;3.80;;;8.90;99.90;;;;;;5054233;28;20392;-51
2023/03/22 03:28:29;;;;;;;11.15;4.18;;;8.90;99.90;;;;;;5054164;28;20048;-48
2023/03/22 03:31:23;;;;;;;16.00;3.65;;;8.90;99.90;;;;;;5055613;28;20068;-45
2023/03/22 03:34:15;;;;;;;12.65;3.83;;;8.90;99.90;;;;;;5045233;28;20224;-44
2023/03/22 03:36:46;;;;;;;9.25;3.50;;;9.00;99.90;;;;;;5052146;28;20056;-45
2023/03/22 03:39:14;;;;;;;11.02;3.25;;;8.90;99.90;;;;;;5049237;28;20040;-52
2023/03/22 03:41:43;;;;;;;15.60;4.45;;;8.90;99.90;;;;;;5053535;28;20048;-48
2023/03/22 03:44:09;;;;;;;15.55;4.53;;;8.90;99.90;;;;;;5056544;28;20489;-49
2023/03/22 03:46:35;;;;;;;14.30;4.60;;;8.90;99.90;;;;;;5037371;28;20056;-41
2023/03/22 03:49:03;;;;;;;13.52;4.22;;;8.90;99.90;;;;;;5055529;28;20052;-45
2023/03/22 03:51:29;;;;;;;13.82;4.60;;;8.90;99.90;;;;;;5060264;28;20340;-50
2023/03/22 03:53:54;;;;;;;13.45;4.30;;;8.90;99.90;;;;;;5071156;28;20048;-41
2023/03/22 03:56:20;;;;;;;13.40;4.30;;;9.00;99.90;;;;;;5074484;28;20051;-47
2023/03/22 03:58:46;;;;;;;17.13;3.88;;;9.00;99.90;;;;;;5075601;28;20446;-42
2023/03/22 04:01:11;;;;;;;13.82;3.58;;;9.00;99.90;;;;;;5061388;28;20056;-49
2023/03/22 04:03:37;;;;;;;13.82;3.63;;;9.00;99.90;;;;;;5075823;28;20426;-45
2023/03/22 04:06:03;;;;;;;10.75;3.28;;;9.00;99.90;;;;;;5075258;28;20833;-43
2023/03/22 04:08:28;;;;;;;7.88;3.22;;;8.90;99.90;;;;;;5075445;28;20373;-48
2023/03/22 04:10:54;;;;;;;16.23;4.72;;;8.90;99.90;;;;;;5074713;28;20124;-42
2023/03/22 04:13:23;;;;;;;14.15;3.92;;;8.90;99.90;;;;;;5075792;28;20048;-47
2023/03/22 04:15:54;;;;;;;12.30;4.57;;;8.90;99.90;;;;;;5075153;28;20131;-44
2023/03/22 04:18:20;;;;;;;13.40;4.68;;;8.90;99.90;;;;;;5060816;28;20040;-42
2023/03/22 04:20:48;;;;;;;12.57;4.30;;;8.90;99.90;;;;;;5062906;28;20055;-44
2023/03/22 04:23:14;;;;;;;14.30;4.28;;;8.80;99.90;;;;;;5074614;28;20062;-50
2023/03/22 04:25:40;;;;;;;10.02;4.30;;;8.80;99.90;;;;;;5066634;28;20056;-43
2023/03/22 04:28:06;;;;;;;13.40;4.63;;;8.80;99.90;;;;;;5069072;28;20051;-44
2023/03/22 04:30:34;;;;;;;12.10;5.78;;;8.80;99.90;;;;;;5074670;28;20059;-45
2023/03/22 04:33:05;;;;;;;11.70;5.70;;;8.90;99.90;;;;;;5059670;28;20414;-39
2023/03/22 04:35:33;;;;;;;18.70;6.43;;;8.80;99.90;;;;;;5055291;28;20151;-50
2023/03/22 04:38:00;;;;;;;13.57;5.97;;;8.90;99.90;;;;;;5045740;28;20509;-45
2023/03/22 04:40:30;;;;;;;11.63;5.93;;;8.90;99.90;;;;;;5075066;28;20055;-38
2023/03/22 04:42:56;;;;;;;12.35;5.97;;;8.90;99.90;;;;;;5074983;28;20605;-40
2023/03/22 04:45:22;;;;;;;13.35;7.47;;;8.90;99.90;;;;;;5075421;28;20067;-43
2023/03/22 04:47:48;;;;;;;12.90;7.00;;;8.90;99.90;;;;;;5074695;28;20528;-48
2023/03/22 04:50:14;;;;;;;16.52;7.93;;;9.00;99.90;;;;;;5055309;28;20072;-44
2023/03/22 04:52:39;;;;;;;17.67;8.98;;;8.90;99.90;;;;;;5060535;28;20135;-51
2023/03/22 04:55:05;;;;;;;14.30;7.93;;;9.00;99.90;;;;;;5055696;28;20048;-43
2023/03/22 04:57:31;;;;;;;16.48;9.23;;;9.00;99.90;;;;;;5071007;28;20074;-45
2023/03/22 04:59:57;;;;;;;16.88;9.18;;;9.10;99.90;;;;;;5065490;28;20040;-50
2023/03/22 05:02:22;;;;;;;16.65;9.93;;;9.10;99.90;;;;;;5041121;28;20392;-47
2023/03/22 05:04:48;;;;;;;17.10;11.20;;;9.10;99.90;;;;;;5054783;28;20109;-50
2023/03/22 05:07:14;;;;;;;22.10;10.90;;;9.10;99.90;;;;;;5053272;28;20384;-45
2023/03/22 05:09:39;;;;;;;21.95;11.82;;;9.10;99.90;;;;;;5064952;28;20433;-51
2023/03/22 05:12:05;;;;;;;23.98;12.55;;;9.20;99.90;;;;;;5071512;28;20044;-41
2023/03/22 05:14:31;;;;;;;23.00;12.52;;;9.20;99.90;;;;;;5065275;28;20378;-39
2023/03/22 05:16:57;;;;;;;21.38;11.95;;;9.20;99.90;;;;;;5074425;28;20523;-47
2023/03/22 05:19:23;;;;;;;20.35;12.02;;;9.20;99.90;;;;;;5075262;28;20079;-49
2023/03/22 05:21:57;;;;;;;19.27;11.88;;;9.20;99.90;;;;;;5074904;28;20082;-51
2023/03/22 05:24:22;;;;;;;19.45;12.85;;;9.20;99.90;;;;;;5074603;28;20052;-45
2023/03/22 05:26:52;;;;;;;21.35;13.40;;;9.10;99.90;;;;;;5072651;28;20114;-49
2023/03/22 05:29:18;;;;;;;21.30;13.70;;;9.20;99.90;;;;;;5075389;28;20055;-46
2023/03/22 05:31:43;;;;;;;24.15;13.38;;;9.20;99.90;;;;;;5072190;28;20418;-47
2023/03/22 05:34:09;;;;;;;20.13;12.32;;;9.20;99.90;;;;;;5067220;28;20051;-49
2023/03/22 05:36:37;;;;;;;23.55;14.30;;;9.20;99.90;;;;;;5058337;28;20048;-42
2023/03/22 05:39:03;;;;;;;20.67;14.40;;;9.20;99.90;;;;;;5048324;28;20041;-50
2023/03/22 05:41:32;;;;;;;20.23;12.75;;;9.20;99.90;;;;;;5056106;28;20044;-48
2023/03/22 05:43:58;;;;;;;22.92;14.30;;;9.20;99.90;;;;;;5057636;28;20554;-48
2023/03/22 05:46:24;;;;;;;20.63;14.75;;;9.20;99.90;;;;;;5057850;28;20061;-44
2023/03/22 05:48:50;;;;;;;23.98;14.88;;;9.20;99.90;;;;;;5058449;28;20051;-46
2023/03/22 05:51:16;;;;;;;22.50;14.65;;;9.30;99.90;;;;;;5047163;28;20056;-39
2023/03/22 05:53:46;;;;;;;23.83;14.60;;;9.20;99.90;;;;;;5056421;28;20040;-53
2023/03/22 05:56:13;;;;;;;21.48;13.63;;;9.20;99.90;;;;;;5063551;28;20047;-49
2023/03/22 05:58:40;;;;;;;22.35;13.55;;;9.20;99.90;;;;;;5066744;28;20477;-52
2023/03/22 06:01:10;;;;;;;20.27;14.35;;;9.30;99.90;;;;;;5057862;28;20111;-44
2023/03/22 06:03:37;;;;;;;22.80;13.77;;;9.30;99.90;;;;;;5057892;28;20410;-40
2023/03/22 06:06:05;;;;;;;20.38;14.70;;;9.30;99.90;;;;;;5057699;28;20048;-39
2023/03/22 06:08:32;;;;;;;27.63;16.13;;;9.30;99.90;;;;;;5058313;28;20040;-44
2023/03/22 06:10:58;;;;;;;22.58;15.63;;;9.30;99.90;;;;;;5076178;28;20509;-48
2023/03/22 06:13:24;;;;;;;24.23;15.60;;;9.30;99.90;;;;;;5077476;28;20500;-46
2023/03/22 06:15:50;;;;;;;24.00;15.60;;;9.30;99.90;;;;;;5077321;28;20051;-40
2023/03/22 06:18:16;;;;;;;24.85;16.83;;;9.40;99.90;;;;;;5076688;28;20139;-40
2023/03/22 06:20:42;;;;;;;23.08;16.85;;;9.30;99.90;;;;;;5069827;28;20117;-50
2023/03/22 06:23:08;;;;;;;23.88;15.77;;;9.40;99.90;;;;;;5072545;28;20379;-40
2023/03/22 06:25:34;;;;;;;25.95;16.98;;;9.40;99.90;;;;;;5068452;28;20056;-46
2023/03/22 06:28:00;;;;;;;24.63;16.30;;;9.40;99.90;;;;;;5058959;28;20051;-44
2023/03/22 06:30:26;;;;;;;22.95;16.45;;;9.50;99.90;;;;;;5064765;28;20094;-39
2023/03/22 06:32:52;;;;;;;22.38;15.02;;;9.50;99.90;;;;;;5065148;28;20048;-40
2023/03/22 06:35:17;;;;;;;22.20;15.73;;;9.60;99.90;;;;;;5057938;28;20131;-40
2023/03/22 06:37:43;;;;;;;22.55;15.85;;;9.60;99.90;;;;;;5046754;28;20744;-49
2023/03/22 06:40:09;;;;;;;20.98;15.32;;;9.60;99.90;;;;;;5056909;28;20060;-53
2023/03/22 06:42:35;;;;;;;23.63;15.80;;;9.70;99.90;;;;;;5057266;28;20052;-48
2023/03/22 06:45:01;;;;;;;25.33;15.73;;;9.80;99.90;;;;;;5065340;28;20158;-39
2023/03/22 06:47:27;;;;;;;20.60;15.13;;;9.80;99.90;;;;;;5075193;28;20047;-48
2023/03/22 06:49:53;;;;;;;23.05;14.65;;;9.90;99.90;;;;;;5062505;28;20053;-43
2023/03/22 06:52:19;;;;;;;20.83;13.32;;;10.00;99.90;;;;;;5048217;28;20106;-45
2023/03/22 06:54:44;;;;;;;18.58;13.90;;;10.00;99.90;;;;;;5057609;28;20147;-48
2023/03/22 06:57:10;;;;;;;22.63;14.80;;;9.90;99.90;;;;;;5056543;28;20855;-46
2023/03/22 06:59:36;;;;;;;19.90;13.15;;;9.90;99.90;;;;;;5056827;28;20036;-41
2023/03/22 07:02:02;;;;;;;19.45;13.30;;;9.90;99.90;;;;;;5057397;28;20041;-44
2023/03/22 07:04:28;;;;;;;21.02;14.05;;;9.90;99.90;;;;;;5075936;28;20591;-51
2023/03/22 07:06:54;;;;;;;23.83;13.52;;;10.00;99.90;;;;;;5076379;28;20079;-47
2023/03/22 07:09:20;;;;;;;19.98;12.20;;;10.00;99.90;;;;;;5043100;28;20243;-48
2023/03/22 07:11:45;;;;;;;20.83;13.10;;;10.00;99.90;;;;;;5056266;28;20437;-50
2023/03/22 07:14:11;;;;;;;19.80;12.65;;;10.10;99.90;;;;;;5056424;28;20091;-45
2023/03/22 07:16:37;;;;;;;18.02;12.48;;;10.10;99.90;;;;;;5056623;28;20051;-41
2023/03/22 07:19:02;;;;;;;18.58;11.50;;;10.20;99.90;;;;;;5056068;28;20044;-44
2023/03/22 07:21:28;;;;;;;18.48;11.13;;;10.20;99.90;;;;;;5054296;28;20286;-46
2023/03/22 07:23:54;;;;;;;21.73;12.07;;;10.20;99.90;;;;;;5044415;28;20041;-52
2023/03/22 07:26:20;;;;;;;17.13;11.80;;;10.20;99.90;;;;;;5043709;28;20487;-49
2023/03/22 07:28:46;;;;;;;20.02;11.95;;;10.20;99.90;;;;;;5055185;28;20040;-46
2023/03/22 07:31:12;;;;;;;18.25;11.63;;;10.20;99.90;;;;;;5054736;28;20045;-50
2023/03/22 07:33:38;;;;;;;15.90;11.60;;;10.20;99.90;;;;;;5055997;28;20056;-41
2023/03/22 07:36:06;;;;;;;18.52;11.35;;;10.20;99.90;;;;;;5054703;28;20056;-44
2023/03/22 07:38:31;;;;;;;18.33;10.77;;;10.20;99.90;;;;;;5043368;28;20090;-47
2023/03/22 07:40:57;;;;;;;20.88;10.85;;;10.20;99.90;;;;;;5044664;28;20053;-48
2023/03/22 07:43:23;;;;;;;15.77;10.68;;;10.30;99.90;;;;;;5036865;28;20044;-45
2023/03/22 07:45:50;;;;;;;16.35;9.63;;;10.40;99.90;;;;;;5036713;28;20053;-44
2023/03/22 07:48:17;;;;;;;18.33;9.85;;;10.50;99.90;;;;;;5049526;28;20461;-48
2023/03/22 07:50:42;;;;;;;13.75;9.45;;;10.50;99.90;;;;;;5041655;28;20131;-44
2023/03/22 07:53:09;;;;;;;17.10;10.13;;;10.50;99.90;;;;;;5053874;28;20439;-46
2023/03/22 07:55:35;;;;;;;17.73;9.48;;;10.40;99.90;;;;;;5053208;28;20110;-39
2023/03/22 07:58:01;;;;;;;19.50;11.07;;;10.40;99.90;;;;;;5055292;28;20047;-47
2023/03/22 08:00:27;;;;;;;18.67;10.90;;;10.40;99.90;;;;;;5054323;28;20785;-49
2023/03/22 08:02:52;;;;;;;18.23;9.48;;;10.40;99.90;;;;;;5053930;28;20186;-48
2023/03/22 08:05:19;;;;;;;20.80;10.68;;;10.50;99.90;;;;;;5052356;28;20514;-45
2023/03/22 08:07:45;;;;;;;18.55;9.02;;;10.60;99.90;;;;;;5054037;28;20056;-43
2023/03/22 08:10:11;;;;;;;14.95;9.05;;;10.60;99.90;;;;;;5054207;28;20776;-45
2023/03/22 08:12:36;;;;;;;16.02;9.02;;;10.60;99.90;;;;;;5055451;28;20519;-42
2023/03/22 08:15:02;;;;;;;17.27;8.93;;;10.50;99.90;;;;;;5054887;28;20076;-44
2023/03/22 08:17:29;;;;;;;14.95;7.90;;;10.50;99.90;;;;;;5054095;28;20044;-52
2023/03/22 08:19:55;;;;;;;14.98;8.27;;;10.50;99.90;;;;;;5054877;28;20410;-39
2023/03/22 08:22:24;;;;;;;13.95;8.00;;;10.50;99.90;;;;;;5055166;28;20087;-44
2023/03/22 08:24:53;;;;;;;20.75;7.93;;;10.60;99.90;;;;;;5054256;28;20045;-40
2023/03/22 08:27:19;;;;;;;17.23;8.13;;;10.70;99.90;;;;;;5055050;28;20052;-47
2023/03/22 08:29:48;;;;;;;12.35;7.88;;;10.90;99.90;;;;;;5055019;28;20049;-41
2023/03/22 08:32:15;;;;;;;16.98;7.65;;;11.10;99.90;;;;;;5041807;28;20136;-40
2023/03/22 08:34:42;;;;;;;19.20;7.32;;;11.30;99.90;;;;;;5043885;28;20053;-44
2023/03/22 08:37:09;;;;;;;13.75;7.45;;;11.50;99.90;;;;;;5039893;28;20056;-46
2023/03/22 08:39:36;;;;;;;16.55;7.72;;;11.60;99.90;;;;;;5050986;28;20055;-40
2023/03/22 08:42:03;;;;;;;13.50;7.20;;;11.40;99.90;;;;;;5055203;28;20052;-45
2023/03/22 08:44:29;;;;;;;15.30;8.23;;;11.30;99.90;;;;;;5054539;28;20421;-50
2023/03/22 08:46:54;;;;;;;14.05;7.82;;;11.20;99.90;;;;;;5052358;28;20048;-43
2023/03/22 08:49:20;;;;;;;16.88;8.65;;;11.20;99.90;;;;;;5052022;28;20084;-40
2023/03/22 08:51:46;;;;;;;19.02;7.80;;;11.10;99.90;;;;;;5053609;28;20055;-41
2023/03/22 08:54:12;;;;;;;20.20;8.68;;;11.00;99.90;;;;;;5069777;28;20052;-50
2023/03/22 08:56:38;;;;;;;14.35;6.95;;;11.00;99.90;;;;;;5075941;28;20044;-51
2023/03/22 08:59:05;;;;;;;19.52;6.57;;;11.00;99.90;;;;;;5056578;28;20058;-47
2023/03/22 09:01:31;;;;;;;14.88;6.25;;;10.90;99.90;;;;;;5054642;28;20619;-44
2023/03/22 09:03:57;;;;;;;13.05;6.47;;;11.00;99.90;;;;;;5057079;28;20746;-45
2023/03/22 09:06:25;;;;;;;15.40;6.15;;;10.90;99.90;;;;;;5053081;28;20493;-45
2023/03/22 09:08:53;;;;;;;16.02;6.38;;;10.90;99.90;;;;;;5071763;28;20118;-49
2023/03/22 09:11:20;;;;;;;18.40;6.82;;;11.00;99.90;;;;;;5074556;28;20129;-43
2023/03/22 09:13:46;;;;;;;18.85;6.75;;;11.00;99.90;;;;;;5075776;28;20060;-39
2023/03/22 09:16:12;;;;;;;13.45;6.95;;;11.00;99.90;;;;;;5068028;28;20068;-45
2023/03/22 09:18:39;;;;;;;18.58;6.63;;;10.90;99.90;;;;;;5059001;28;20573;-42
2023/03/22 09:21:06;;;;;;;17.63;6.70;;;10.90;99.90;;;;;;5058472;28;20129;-41
2023/03/22 09:23:34;;;;;;;10.70;5.78;;;10.80;99.90;;;;;;5058977;28;20055;-48
2023/03/22 09:26:02;;;;;;;16.42;6.72;;;10.80;99.90;;;;;;5058608;28;20083;-42
2023/03/22 09:28:28;;;;;;;16.58;6.47;;;10.70;99.90;;;;;;5063789;28;20048;-42
2023/03/22 09:30:54;;;;;;;16.10;7.05;;;10.70;99.90;;;;;;5078788;28;20052;-47
2023/03/22 09:33:20;;;;;;;15.23;6.15;;;10.70;99.90;;;;;;5060615;28;20040;-43
2023/03/22 09:35:45;;;;;;;16.17;7.15;;;10.60;99.90;;;;;;5057639;28;20410;-41
2023/03/22 09:38:11;;;;;;;15.48;6.03;;;10.60;99.90;;;;;;5059817;28;20554;-38
2023/03/22 09:40:59;;;;;;;14.27;5.72;;;10.50;99.90;;;;;;5078856;28;20051;-48
2023/03/22 09:43:31;;;;;;;11.95;5.82;;;10.50;99.90;;;;;;5067122;28;20056;-48
2023/03/22 09:45:58;;;;;;;17.70;6.45;;;10.40;99.90;;;;;;5075141;28;20052;-47
2023/03/22 09:48:37;;;;;;;13.32;5.65;;;10.40;99.90;;;;;;5057492;28;20047;-50
2023/03/22 09:51:06;;;;;;;12.55;4.85;;;10.40;99.90;;;;;;5053506;28;20063;-46
2023/03/22 09:53:32;;;;;;;14.23;4.97;;;10.30;99.90;;;;;;5057921;28;20040;-44
2023/03/22 09:56:08;;;;;;;10.32;4.85;;;10.30;99.90;;;;;;5062443;28;20414;-51
2023/03/22 09:58:55;;;;;;;13.93;4.45;;;10.30;99.90;;;;;;5058507;28;20032;-45
2023/03/22 10:01:48;;;;;;;12.25;4.10;;;10.30;99.90;;;;;;5064809;28;20082;-51
2023/03/22 10:04:38;;;;;;;12.98;4.00;;;10.20;99.90;;;;;;5068553;28;20105;-45
2023/03/22 10:07:08;;;;;;;9.15;4.25;;;10.20;99.90;;;;;;5071529;28;20155;-43
2023/03/22 10:09:47;;;;;;;10.63;4.35;;;10.20;99.90;;;;;;5073740;28;20713;-44
2023/03/22 10:12:28;;;;;;;13.38;4.63;;;10.20;99.90;;;;;;5077299;28;20040;-51
2023/03/22 10:15:17;;;;;;;10.45;5.40;;;10.10;99.90;;;;;;5077847;28;20048;-48
2023/03/22 10:17:48;;;;;;;13.90;6.90;;;10.10;99.90;;;;;;5047506;28;20073;-45
2023/03/22 10:20:45;;;;;;;17.90;7.90;;;10.10;99.90;;;;;;5057061;28;20046;-48
2023/03/22 10:23:16;;;;;;;14.90;8.50;;;10.10;99.90;;;;;;5057791;28;20209;-45
2023/03/22 10:25:43;;;;;;;17.42;8.25;;;10.10;99.90;;;;;;5038241;28;20048;-49
2023/03/22 10:28:15;;;;;;;13.18;7.30;;;10.00;99.90;;;;;;5056249;28;20591;-50
2023/03/22 10:30:41;;;;;;;17.42;7.22;;;10.00;99.90;;;;;;5066688;28;20093;-46
2023/03/22 10:33:49;;;;;;;14.43;6.88;;;10.00;99.90;;;;;;5061066;28;20071;-41
2023/03/22 10:36:17;;;;;;;13.15;5.55;;;9.90;99.90;;;;;;5036954;28;20138;-45
2023/03/22 10:38:53;;;;;;;13.45;5.20;;;9.90;99.90;;;;;;5017121;28;20053;-48
2023/03/22 10:41:21;;;;;;;14.30;6.13;;;9.90;99.90;;;;;;5033730;28;20161;-47
2023/03/22 10:43:55;;;;;;;10.52;5.63;;;9.90;99.90;;;;;;5033907;28;20049;-41
2023/03/22 10:46:27;;;;;;;10.70;5.57;;;10.00;99.90;;;;;;5033145;28;20191;-43
2023/03/22 10:48:57;;;;;;;10.80;5.18;;;10.00;99.90;;;;;;5033447;28;20052;-44
2023/03/22 10:51:38;;;;;;;12.43;5.60;;;9.90;99.90;;;;;;5033770;28;20049;-48
2023/03/22 10:54:04;;;;;;;9.00;5.20;;;10.00;99.90;;;;;;5017415;28;20084;-47
2023/03/22 10:56:31;;;;;;;15.70;6.50;;;10.00;99.90;;;;;;5016957;28;20107;-43
2023/03/22 10:58:57;;;;;;;13.98;6.22;;;10.00;99.90;;;;;;5033246;28;20045;-47
2023/03/22 11:01:35;;;;;;;12.52;5.45;;;10.10;99.90;;;;;;5033758;28;20199;-48
2023/03/22 11:04:15;;;;;;;13.15;4.97;;;10.10;99.90;;;;;;5016971;28;20049;-44
2023/03/22 11:06:52;;;;;;;12.80;5.40;;;10.10;99.90;;;;;;5033254;28;20053;-46
2023/03/22 11:09:21;;;;;;;9.02;5.15;;;10.10;99.90;;;;;;5015951;28;20616;-45
2023/03/22 11:11:52;;;;;;;8.90;4.95;;;10.20;99.90;;;;;;5033089;28;20080;-43
2023/03/22 11:14:36;;;;;;;8.32;4.95;;;10.20;99.90;;;;;;5054722;28;20320;-45
2023/03/22 11:17:14;;;;;;;13.68;5.30;;;10.20;99.90;;;;;;5062174;28;20040;-45
2023/03/22 11:19:50;;;;;;;10.27;5.75;;;10.30;99.90;;;;;;5063638;28;20062;-47
2023/03/22 11:22:44;;;;;;;12.95;6.82;;;10.30;99.90;;;;;;5056781;28;20056;-45
2023/03/22 11:25:44;;;;;;;16.60;8.27;;;10.30;99.90;;;;;;5055329;28;20236;-51
2023/03/22 11:28:31;;;;;;;18.73;8.95;;;10.40;99.90;;;;;;5052926;28;20063;-48
2023/03/22 11:31:14;;;;;;;11.70;6.45;;;10.40;99.90;;;;;;5052409;28;20049;-44
2023/03/22 11:33:56;;;;;;;11.50;6.43;;;10.40;99.90;;;;;;5042145;28;20095;-46
2023/03/22 11:36:22;;;;;;;15.15;7.00;;;10.50;99.90;;;;;;5034216;28;20076;-40
2023/03/22 11:38:55;;;;;;;11.32;5.65;;;10.50;99.90;;;;;;5032943;28;20485;-52
2023/03/22 11:41:38;;;;;;;13.35;6.35;;;10.60;99.90;;;;;;5035563;28;20518;-44
2023/03/22 11:44:07;;;;;;;12.95;6.13;;;10.60;99.90;;;;;;5052355;28;20052;-50
2023/03/22 11:46:34;;;;;;;10.80;6.05;;;10.70;99.90;;;;;;5051933;28;20116;-45
2023/03/22 11:49:03;;;;;;;12.55;5.70;;;10.70;99.90;;;;;;5051692;28;20994;-42
2023/03/22 11:51:33;;;;;;;13.50;5.55;;;10.70;99.90;;;;;;5009684;28;20048;-51
2023/03/22 11:54:15;;;;;;;9.45;5.03;;;10.70;99.90;;;;;;5047910;28;20812;-46
2023/03/22 11:56:44;;;;;;;8.98;4.97;;;10.70;99.90;;;;;;5052270;28;20167;-46
2023/03/22 11:59:27;;;;;;;10.45;5.13;;;10.70;99.90;;;;;;5033355;28;20052;-48
2023/03/22 12:02:21;;;;;;;12.93;5.30;;;10.60;99.90;;;;;;5045390;28;20052;-42
2023/03/22 12:04:49;;;;;;;9.73;4.70;;;10.60;99.90;;;;;;5061734;28;20070;-51
2023/03/22 12:07:20;;;;;;;9.73;4.88;;;10.60;99.90;;;;;;5054317;28;20490;-42
2023/03/22 12:10:10;;;;;;;11.48;4.22;;;10.60;99.90;;;;;;5055593;28;20072;-40
2023/03/22 12:12:43;;;;;;;7.28;4.25;;;10.60;99.90;;;;;;5064661;28;20076;-39
2023/03/22 12:15:22;;;;;;;9.17;4.60;;;10.60;99.90;;;;;;5076074;28;20309;-53
2023/03/22 12:17:59;;;;;;;7.80;4.38;;;10.60;99.90;;;;;;5076398;28;20325;-46
2023/03/22 12:20:31;;;;;;;10.52;4.30;;;10.60;99.90;;;;;;5074839;28;20075;-45
2023/03/22 12:22:57;;;;;;;11.40;4.70;;;10.60;99.90;;;;;;5076698;28;20036;-39
2023/03/22 12:25:33;;;;;;;9.60;4.80;;;10.60;99.90;;;;;;5075762;28;20109;-40
2023/03/22 12:28:05;;;;;;;10.57;4.35;;;10.50;99.90;;;;;;5075231;28;20140;-49
2023/03/22 12:30:39;;;;;;;13.27;5.30;;;10.50;99.90;;;;;;5074440;28;20047;-41
2023/03/22 12:33:25;;;;;;;10.20;4.68;;;10.50;99.90;;;;;;5062344;28;20040;-46
2023/03/22 12:35:56;;;;;;;12.40;5.28;;;10.40;99.90;;;;;;5055071;28;20155;-39
2023/03/22 12:38:34;;;;;;;8.32;4.85;;;10.40;99.90;;;;;;5045506;28;20051;-39
2023/03/22 12:41:06;;;;;;;6.88;5.20;;;10.40;99.90;;;;;;5054698;28;20044;-42
2023/03/22 12:43:52;;;;;;;12.40;5.20;;;10.40;99.90;;;;;;5054351;28;20048;-39
2023/03/22 12:46:32;;;;;;;12.20;6.07;;;10.30;99.90;;;;;;5054013;28;20512;-47
2023/03/22 12:49:18;;;;;;;12.90;6.10;;;10.40;99.90;;;;;;5057689;28;20032;-46
2023/03/22 12:51:45;;;;;;;17.23;9.85;;;10.50;99.90;;;;;;5056801;28;20534;-50
2023/03/22 12:54:14;;;;;;;12.48;6.55;;;10.50;99.90;;;;;;5061593;28;20040;-41
2023/03/22 12:56:43;;;;;;;10.68;5.82;;;10.50;99.90;;;;;;5079679;28;20500;-53